createdAt,value
2018-12-08T00:00:18.359Z,34.60
2018-12-08T00:02:46.750Z,34.70
2018-12-08T00:05:14.900Z,34.00
2018-12-08T00:07:43.096Z,33.60
2018-12-08T00:10:11.417Z,33.20
2018-12-08T00:12:39.804Z,33.40
2018-12-08T00:15:08.244Z,33.80
2018-12-08T00:17:36.403Z,33.60
2018-12-08T00:20:05.071Z,33.90
2018-12-08T00:22:33.304Z,33.90
2018-12-08T00:25:01.555Z,33.90
2018-12-08T00:27:29.741Z,33.00
2018-12-08T00:29:58.007Z,32.70
2018-12-08T00:32:26.243Z,32.70
2018-12-08T00:34:54.428Z,32.60
2018-12-08T00:37:22.627Z,32.80
2018-12-08T00:39:50.834Z,32.50
2018-12-08T00:42:18.995Z,30.90
2018-12-08T00:44:47.215Z,30.50
2018-12-08T00:47:15.344Z,29.80
2018-12-08T00:49:43.507Z,29.30
2018-12-08T00:52:12.128Z,29.70
2018-12-08T00:54:40.336Z,29.10
2018-12-08T00:57:08.480Z,28.50
2018-12-08T00:59:36.714Z,28.40
2018-12-08T01:02:05.099Z,28.40
2018-12-08T01:04:33.307Z,28.40
2018-12-08T01:07:01.488Z,28.30
2018-12-08T01:09:29.689Z,27.70
2018-12-08T01:11:57.871Z,28.20
2018-12-08T01:14:26.072Z,28.80
2018-12-08T01:16:54.543Z,28.30
2018-12-08T01:19:22.671Z,28.40
2018-12-08T01:21:50.936Z,28.50
2018-12-08T01:24:19.171Z,28.70
2018-12-08T01:26:47.376Z,28.90
2018-12-08T01:29:15.591Z,29.20
2018-12-08T01:31:43.774Z,29.30
2018-12-08T01:34:11.919Z,29.30
2018-12-08T01:36:40.098Z,29.40
2018-12-08T01:39:08.255Z,29.60
2018-12-08T01:41:36.443Z,29.40
2018-12-08T01:44:04.761Z,29.80
2018-12-08T01:46:33.070Z,30.00
2018-12-08T01:49:01.270Z,30.20
2018-12-08T01:51:31.190Z,30.60
2018-12-08T01:54:00.773Z,30.10
2018-12-08T01:56:29.049Z,30.40
2018-12-08T01:58:57.348Z,30.40
2018-12-08T02:01:25.495Z,30.00
2018-12-08T02:03:53.915Z,28.90
2018-12-08T02:06:22.228Z,28.80
2018-12-08T02:08:50.448Z,28.70
2018-12-08T02:11:24.925Z,28.90
2018-12-08T02:13:48.780Z,29.50
2018-12-08T02:16:17.091Z,29.80
2018-12-08T02:18:45.247Z,30.30
2018-12-08T02:21:13.443Z,30.40
2018-12-08T02:23:41.679Z,30.00
2018-12-08T02:26:09.847Z,30.40
2018-12-08T02:28:38.059Z,30.20
2018-12-08T02:31:06.246Z,30.40
2018-12-08T02:33:34.462Z,29.80
2018-12-08T02:36:02.651Z,30.00
2018-12-08T02:38:31.412Z,30.10
2018-12-08T02:40:59.608Z,29.90
2018-12-08T02:43:27.787Z,29.90
2018-12-08T02:45:56.055Z,29.80
2018-12-08T02:48:24.250Z,29.20
2018-12-08T02:50:52.466Z,29.40
2018-12-08T02:53:20.683Z,29.00
2018-12-08T02:55:48.880Z,28.70
2018-12-08T02:58:17.123Z,28.80
2018-12-08T03:00:45.314Z,28.90
2018-12-08T03:03:13.544Z,29.00
2018-12-08T03:05:41.740Z,29.20
2018-12-08T03:08:09.892Z,29.10
2018-12-08T03:10:38.375Z,29.40
2018-12-08T03:13:06.571Z,30.00
2018-12-08T03:15:34.711Z,29.80
2018-12-08T03:18:03.002Z,29.50
2018-12-08T03:20:31.211Z,29.80
2018-12-08T03:22:59.416Z,29.50
2018-12-08T03:25:27.585Z,30.00
2018-12-08T03:27:55.750Z,30.00
2018-12-08T03:30:23.900Z,30.40
2018-12-08T03:32:52.063Z,30.00
2018-12-08T03:35:20.203Z,30.00
2018-12-08T03:37:48.387Z,30.20
2018-12-08T03:40:16.751Z,30.20
2018-12-08T03:42:45.099Z,30.70
2018-12-08T03:45:13.387Z,30.70
2018-12-08T03:47:41.606Z,30.90
2018-12-08T03:50:10.042Z,30.80
2018-12-08T03:52:38.232Z,30.90
2018-12-08T03:55:06.625Z,30.70
2018-12-08T03:57:35.027Z,30.80
2018-12-08T04:00:03.588Z,30.70
2018-12-08T04:02:31.702Z,30.60
2018-12-08T04:04:59.951Z,30.50
2018-12-08T04:07:28.127Z,30.10
2018-12-08T04:09:56.303Z,30.00
2018-12-08T04:12:24.491Z,29.90
2018-12-08T04:14:52.715Z,29.70
2018-12-08T04:17:20.963Z,29.40
2018-12-08T04:19:49.244Z,29.10
2018-12-08T04:22:17.452Z,28.80
2018-12-08T04:24:45.683Z,28.90
2018-12-08T04:27:13.874Z,29.10
2018-12-08T04:29:42.143Z,29.10
2018-12-08T04:32:10.311Z,28.90
2018-12-08T04:34:38.522Z,28.70
2018-12-08T04:37:06.784Z,29.00
2018-12-08T04:39:35.131Z,28.90
2018-12-08T04:42:03.328Z,29.10
2018-12-08T04:44:31.529Z,29.00
2018-12-08T04:46:59.723Z,28.70
2018-12-08T04:49:27.887Z,29.10
2018-12-08T04:51:56.125Z,29.50
2018-12-08T04:54:24.392Z,28.90
2018-12-08T04:56:52.672Z,29.10
2018-12-08T04:59:20.952Z,29.00
2018-12-08T05:01:49.114Z,29.20
2018-12-08T05:04:17.277Z,28.90
2018-12-08T05:06:45.730Z,28.90
2018-12-08T05:09:14.052Z,29.00
2018-12-08T05:11:42.295Z,29.10
2018-12-08T05:14:10.515Z,29.00
2018-12-08T05:16:38.663Z,28.50
2018-12-08T05:19:06.539Z,29.00
2018-12-08T05:21:34.734Z,28.80
2018-12-08T05:24:03.091Z,29.20
2018-12-08T05:26:31.275Z,28.80
2018-12-08T05:28:59.486Z,29.30
2018-12-08T05:31:27.695Z,29.50
2018-12-08T05:33:55.924Z,29.90
2018-12-08T05:36:24.110Z,30.00
2018-12-08T05:38:52.311Z,29.90
2018-12-08T05:41:20.459Z,29.60
2018-12-08T05:43:48.819Z,29.50
2018-12-08T05:46:16.967Z,29.80
2018-12-08T05:48:45.255Z,28.70
2018-12-08T05:51:13.739Z,28.50
2018-12-08T05:53:41.923Z,28.30
2018-12-08T05:56:10.162Z,28.50
2018-12-08T05:58:38.380Z,28.40
2018-12-08T06:01:06.595Z,28.70
2018-12-08T06:03:34.780Z,28.50
2018-12-08T06:06:02.938Z,28.40
2018-12-08T06:08:31.091Z,28.60
2018-12-08T06:10:59.487Z,28.50
2018-12-08T06:13:27.664Z,28.80
2018-12-08T06:15:55.979Z,29.10
2018-12-08T06:18:24.158Z,29.30
2018-12-08T06:20:52.357Z,29.50
2018-12-08T06:23:20.487Z,29.80
2018-12-08T06:25:48.899Z,30.10
2018-12-08T06:28:21.818Z,30.00
2018-12-08T06:30:50.119Z,30.00
2018-12-08T06:33:18.319Z,30.70
2018-12-08T06:35:46.511Z,30.80
2018-12-08T06:38:14.743Z,30.80
2018-12-08T06:40:42.887Z,30.80
2018-12-08T06:43:11.197Z,31.40
2018-12-08T06:45:39.315Z,31.60
2018-12-08T06:48:07.483Z,32.00
2018-12-08T06:50:35.627Z,31.90
2018-12-08T06:53:03.781Z,31.90
2018-12-08T06:55:32.036Z,32.20
2018-12-08T06:58:00.231Z,32.00
2018-12-08T07:00:28.392Z,31.30
2018-12-08T07:02:56.651Z,31.50
2018-12-08T07:05:24.828Z,31.20
2018-12-08T07:07:52.981Z,31.60
2018-12-08T07:10:21.276Z,31.10
2018-12-08T07:12:49.495Z,30.70
2018-12-08T07:15:17.669Z,30.70
2018-12-08T07:17:46.017Z,30.00
2018-12-08T07:20:14.351Z,29.90
2018-12-08T07:22:42.539Z,29.90
2018-12-08T07:25:10.769Z,30.00
2018-12-08T07:27:38.895Z,29.40
2018-12-08T07:30:09.559Z,29.50
2018-12-08T07:32:38.952Z,29.70
2018-12-08T07:35:08.306Z,29.50
2018-12-08T07:37:36.575Z,29.70
2018-12-08T07:40:06.329Z,29.90
2018-12-08T07:42:34.711Z,30.30
2018-12-08T07:45:03.057Z,30.30
2018-12-08T07:47:31.352Z,30.40
2018-12-08T07:49:59.523Z,30.70
2018-12-08T07:52:27.835Z,30.90
2018-12-08T07:54:56.091Z,31.00
2018-12-08T07:57:24.522Z,31.30
2018-12-08T07:59:52.782Z,31.40
2018-12-08T08:02:21.140Z,31.20
2018-12-08T08:04:49.336Z,31.20
2018-12-08T08:07:17.555Z,31.00
2018-12-08T08:09:45.720Z,31.00
2018-12-08T08:12:14.019Z,31.00
2018-12-08T08:14:42.205Z,30.50
2018-12-08T08:17:10.358Z,31.00
2018-12-08T08:19:38.531Z,32.10
2018-12-08T08:22:06.666Z,32.60
2018-12-08T08:24:34.825Z,33.60
2018-12-08T08:27:03.088Z,34.40
2018-12-08T08:29:31.244Z,35.00
2018-12-08T08:31:59.507Z,35.50
2018-12-08T08:34:27.618Z,35.90
2018-12-08T08:36:55.813Z,36.30
2018-12-08T08:39:23.976Z,37.30
2018-12-08T08:41:52.140Z,38.10
2018-12-08T08:44:20.308Z,38.80
2018-12-08T08:46:48.623Z,38.40
2018-12-08T08:49:16.771Z,38.00
2018-12-08T08:51:44.919Z,38.80
2018-12-08T08:54:13.084Z,39.10
2018-12-08T08:56:41.289Z,39.70
2018-12-08T08:59:09.705Z,40.00
2018-12-08T09:01:37.899Z,40.80
2018-12-08T09:04:06.087Z,40.80
2018-12-08T09:06:34.333Z,40.90
2018-12-08T09:09:02.867Z,41.10
2018-12-08T09:11:31.063Z,40.70
2018-12-08T09:13:59.280Z,40.00
2018-12-08T09:16:27.539Z,40.00
2018-12-08T09:18:55.797Z,40.30
2018-12-08T09:21:24.077Z,39.30
2018-12-08T09:23:52.433Z,39.40
2018-12-08T09:26:20.800Z,39.90
2018-12-08T09:28:49.016Z,39.40
2018-12-08T09:31:17.188Z,39.70
2018-12-08T09:33:45.414Z,40.20
2018-12-08T09:36:13.696Z,41.30
2018-12-08T09:38:41.857Z,40.90
2018-12-08T09:41:10.076Z,43.00
2018-12-08T09:43:38.256Z,42.80
2018-12-08T09:46:06.503Z,43.00
2018-12-08T09:48:34.679Z,43.40
2018-12-08T09:51:02.956Z,44.50
2018-12-08T09:53:31.139Z,44.60
2018-12-08T09:55:59.346Z,44.60
2018-12-08T09:58:27.526Z,44.40
2018-12-08T10:00:55.887Z,45.90
2018-12-08T10:03:24.133Z,43.00
2018-12-08T10:05:52.392Z,42.80
2018-12-08T10:08:20.553Z,42.00
2018-12-08T10:10:48.780Z,41.40
2018-12-08T10:13:17.039Z,40.80
2018-12-08T10:15:45.255Z,40.30
2018-12-08T10:18:13.433Z,39.70
2018-12-08T10:20:41.772Z,39.50
2018-12-08T10:23:09.979Z,40.20
2018-12-08T10:25:38.159Z,39.60
2018-12-08T10:28:06.523Z,39.80
2018-12-08T10:30:34.821Z,38.30
2018-12-08T10:33:03.080Z,38.20
2018-12-08T10:35:31.257Z,38.80
2018-12-08T10:37:59.419Z,37.60
2018-12-08T10:40:27.596Z,38.20
2018-12-08T10:42:55.763Z,37.10
2018-12-08T10:45:24.160Z,36.70
2018-12-08T10:47:52.300Z,37.10
2018-12-08T10:50:20.640Z,37.80
2018-12-08T10:52:48.791Z,38.80
2018-12-08T10:55:17.074Z,39.90
2018-12-08T10:57:45.224Z,39.60
2018-12-08T11:00:18.963Z,40.60
2018-12-08T11:02:53.979Z,42.90
2018-12-08T11:05:22.269Z,43.20
2018-12-08T11:07:50.570Z,42.90
2018-12-08T11:10:18.759Z,43.80
2018-12-08T11:12:47.148Z,44.30
2018-12-08T11:15:15.662Z,44.60
2018-12-08T11:17:44.049Z,44.20
2018-12-08T11:20:12.581Z,44.50
2018-12-08T11:22:40.768Z,45.10
2018-12-08T11:25:08.980Z,45.50
2018-12-08T11:27:37.155Z,44.90
2018-12-08T11:30:05.635Z,44.60
2018-12-08T11:32:33.855Z,45.00
2018-12-08T11:35:02.056Z,44.70
2018-12-08T11:37:30.339Z,42.50
2018-12-08T11:39:58.681Z,44.00
2018-12-08T11:42:26.896Z,45.10
2018-12-08T11:44:55.126Z,44.70
2018-12-08T11:47:23.307Z,46.00
2018-12-08T11:49:51.526Z,45.20
2018-12-08T11:52:19.819Z,45.60
2018-12-08T11:54:48.165Z,43.70
2018-12-08T11:57:16.305Z,45.20
2018-12-08T11:59:44.514Z,43.90
2018-12-08T12:02:16.479Z,42.60
2018-12-08T12:04:42.923Z,42.40
2018-12-08T12:07:11.124Z,41.70
2018-12-08T12:09:39.423Z,40.30
2018-12-08T12:12:07.720Z,40.90
2018-12-08T12:14:53.587Z,41.50
2018-12-08T12:17:21.754Z,41.80
2018-12-08T12:19:50.111Z,41.90
2018-12-08T12:22:18.412Z,42.50
2018-12-08T12:24:47.003Z,45.30
2018-12-08T12:27:15.378Z,45.40
2018-12-08T12:29:43.554Z,45.70
2018-12-08T12:32:11.852Z,45.40
2018-12-08T12:34:40.026Z,44.30
2018-12-08T12:37:08.220Z,45.20
2018-12-08T12:39:36.440Z,44.00
2018-12-08T12:42:04.628Z,42.90
2018-12-08T12:44:32.959Z,42.60
2018-12-08T12:47:01.208Z,40.50
2018-12-08T12:49:29.385Z,41.20
2018-12-08T12:51:57.647Z,40.80
2018-12-08T12:54:25.807Z,38.00
2018-12-08T12:56:53.955Z,39.40
2018-12-08T12:59:22.151Z,38.80
2018-12-08T13:01:51.371Z,37.90
2018-12-08T13:04:19.519Z,38.70
2018-12-08T13:06:47.708Z,38.40
2018-12-08T13:09:15.928Z,39.40
2018-12-08T13:11:45.998Z,38.50
2018-12-08T13:14:14.167Z,39.20
2018-12-08T13:16:42.571Z,39.20
2018-12-08T13:19:10.824Z,40.80
2018-12-08T13:21:39.082Z,41.10
2018-12-08T13:24:07.287Z,42.20
2018-12-08T13:26:35.467Z,42.50
2018-12-08T13:29:03.717Z,43.40
2018-12-08T13:31:31.979Z,43.40
2018-12-08T13:34:10.305Z,44.00
2018-12-08T13:36:38.488Z,43.20
2018-12-08T13:39:07.344Z,44.30
2018-12-08T13:41:35.566Z,43.40
2018-12-08T13:44:04.746Z,43.50
2018-12-08T13:46:33.081Z,43.40
2018-12-08T13:49:01.248Z,43.70
2018-12-08T13:51:29.403Z,43.10
2018-12-08T13:53:57.883Z,42.30
2018-12-08T13:56:26.311Z,41.80
2018-12-08T13:58:54.668Z,42.30
2018-12-08T14:01:22.841Z,43.00
2018-12-08T14:03:51.131Z,42.20
2018-12-08T14:06:19.328Z,41.20
2018-12-08T14:08:47.567Z,40.80
2018-12-08T14:11:15.752Z,40.10
2018-12-08T14:13:43.999Z,39.60
2018-12-08T14:16:12.159Z,40.10
2018-12-08T14:18:40.358Z,39.00
2018-12-08T14:21:08.734Z,39.60
2018-12-08T14:23:36.895Z,39.50
2018-12-08T14:26:05.302Z,40.10
2018-12-08T14:28:33.431Z,39.60
2018-12-08T14:31:01.626Z,38.50
2018-12-08T14:33:29.792Z,38.50
2018-12-08T14:35:58.091Z,38.00
2018-12-08T14:38:26.471Z,37.20
2018-12-08T14:40:54.630Z,37.00
2018-12-08T14:43:22.892Z,37.90
2018-12-08T14:45:51.103Z,37.00
2018-12-08T14:48:19.239Z,37.00
2018-12-08T14:50:47.539Z,36.10
2018-12-08T14:53:15.751Z,35.30
2018-12-08T14:55:43.958Z,35.70
2018-12-08T14:58:12.123Z,35.90
2018-12-08T15:00:40.304Z,35.80
2018-12-08T15:03:08.480Z,35.60
2018-12-08T15:05:36.808Z,34.40
2018-12-08T15:08:05.075Z,34.70
2018-12-08T15:10:33.219Z,34.60
2018-12-08T15:13:01.348Z,35.60
2018-12-08T15:15:29.579Z,35.40
2018-12-08T15:17:57.741Z,33.00
2018-12-08T15:20:26.000Z,32.90
2018-12-08T15:22:54.151Z,32.80
2018-12-08T15:25:22.344Z,32.20
2018-12-08T15:27:50.483Z,32.20
2018-12-08T15:30:20.490Z,32.20
2018-12-08T15:32:50.541Z,32.00
2018-12-08T15:35:18.687Z,31.80
2018-12-08T15:37:46.889Z,32.80
2018-12-08T15:40:15.097Z,32.20
2018-12-08T15:42:43.304Z,32.90
2018-12-08T15:45:11.875Z,32.10
2018-12-08T15:47:40.130Z,32.70
2018-12-08T15:50:10.114Z,31.40
2018-12-08T15:52:38.492Z,31.90
2018-12-08T15:55:06.960Z,31.50
2018-12-08T15:57:35.275Z,31.60
2018-12-08T16:00:04.303Z,31.90
2018-12-08T16:02:32.492Z,31.20
2018-12-08T16:05:00.675Z,30.90
2018-12-08T16:07:28.958Z,31.30
2018-12-08T16:09:57.138Z,31.70
2018-12-08T16:12:25.397Z,31.30
2018-12-08T16:14:53.713Z,32.20
2018-12-08T16:17:21.860Z,31.70
2018-12-08T16:19:50.064Z,32.00
2018-12-08T16:22:18.449Z,32.00
2018-12-08T16:24:49.652Z,32.60
2018-12-08T16:27:17.927Z,31.70
2018-12-08T16:29:46.125Z,32.50
2018-12-08T16:32:14.356Z,32.40
2018-12-08T16:34:42.795Z,31.90
2018-12-08T16:37:10.955Z,31.90
2018-12-08T16:39:39.219Z,32.30
2018-12-08T16:42:07.609Z,32.80
2018-12-08T16:44:35.800Z,33.10
2018-12-08T16:47:04.157Z,33.40
2018-12-08T16:49:32.454Z,32.40
2018-12-08T16:52:00.664Z,33.10
2018-12-08T16:54:28.927Z,33.20
2018-12-08T16:56:57.287Z,33.30
2018-12-08T16:59:26.327Z,33.70
2018-12-08T17:01:54.888Z,33.30
2018-12-08T17:04:23.243Z,33.40
2018-12-08T17:06:51.743Z,32.90
2018-12-08T17:09:20.575Z,33.10
2018-12-08T17:11:49.972Z,33.50
2018-12-08T17:14:18.164Z,33.10
2018-12-08T17:16:46.353Z,32.80
2018-12-08T17:19:14.559Z,33.20
2018-12-08T17:21:42.851Z,33.40
2018-12-08T17:24:11.103Z,33.00
2018-12-08T17:26:39.397Z,32.80
2018-12-08T17:29:07.747Z,32.00
2018-12-08T17:31:36.023Z,32.60
2018-12-08T17:34:04.259Z,33.00
2018-12-08T17:36:32.535Z,33.00
2018-12-08T17:39:00.732Z,33.00
2018-12-08T17:41:29.311Z,33.00
2018-12-08T17:43:57.472Z,33.60
2018-12-08T17:46:25.911Z,34.00
2018-12-08T17:48:54.196Z,34.50
2018-12-08T17:51:22.467Z,35.10
2018-12-08T17:53:50.657Z,36.10
2018-12-08T17:56:18.908Z,37.00
2018-12-08T17:58:47.087Z,36.10
2018-12-08T18:01:15.599Z,36.10
2018-12-08T18:03:43.735Z,37.00
2018-12-08T18:06:11.987Z,39.20
2018-12-08T18:08:40.153Z,39.20
2018-12-08T18:11:08.304Z,41.50
2018-12-08T18:13:36.596Z,41.50
2018-12-08T18:16:04.860Z,42.60
2018-12-08T18:18:33.021Z,42.60
2018-12-08T18:21:01.392Z,42.70
2018-12-08T18:23:29.915Z,44.00
2018-12-08T18:25:58.196Z,44.40
2018-12-08T18:28:26.470Z,45.30
2018-12-08T18:30:54.630Z,46.60
2018-12-08T18:33:22.884Z,47.30
2018-12-08T18:35:51.107Z,48.30
2018-12-08T18:38:19.252Z,48.90
2018-12-08T18:40:47.466Z,49.50
2018-12-08T18:43:15.616Z,50.70
2018-12-08T18:45:43.819Z,51.50
2018-12-08T18:48:12.558Z,52.40
2018-12-08T18:50:40.969Z,53.40
2018-12-08T18:53:09.351Z,54.30
2018-12-08T18:55:37.623Z,54.60
2018-12-08T18:58:05.895Z,55.70
2018-12-08T19:00:34.145Z,57.20
2018-12-08T19:03:02.682Z,57.90
2018-12-08T19:05:30.875Z,59.30
2018-12-08T19:07:59.005Z,60.80
2018-12-08T19:10:27.191Z,62.60
2018-12-08T19:12:55.459Z,62.60
2018-12-08T19:15:23.843Z,64.70
2018-12-08T19:17:52.073Z,65.70
2018-12-08T19:20:20.302Z,65.90
2018-12-08T19:22:48.644Z,67.30
2018-12-08T19:25:16.859Z,67.70
2018-12-08T19:27:45.120Z,68.10
2018-12-08T19:30:13.395Z,68.60
2018-12-08T19:32:41.599Z,68.00
2018-12-08T19:35:09.768Z,67.80
2018-12-08T19:37:37.959Z,68.10
2018-12-08T19:40:07.298Z,68.60
2018-12-08T19:42:35.571Z,68.70
2018-12-08T19:45:04.497Z,68.80
2018-12-08T19:47:32.899Z,68.60
2018-12-08T19:50:01.131Z,69.00
2018-12-08T19:52:29.381Z,69.10
2018-12-08T19:54:57.541Z,69.00
2018-12-08T19:57:25.855Z,68.90
2018-12-08T19:59:54.191Z,69.10
2018-12-08T20:02:22.381Z,70.00
2018-12-08T20:04:50.601Z,70.10
2018-12-08T20:07:18.770Z,69.60
2018-12-08T20:09:46.933Z,69.20
2018-12-08T20:12:15.177Z,69.80
2018-12-08T20:14:43.392Z,69.90
2018-12-08T20:17:11.583Z,70.00
2018-12-08T20:19:39.835Z,70.10
2018-12-08T20:22:08.058Z,70.10
2018-12-08T20:24:36.365Z,69.90
2018-12-08T20:27:04.703Z,70.60
2018-12-08T20:29:32.920Z,70.30
2018-12-08T20:32:01.107Z,70.00
2018-12-08T20:34:29.407Z,70.50
2018-12-08T20:36:57.579Z,70.20
2018-12-08T20:39:25.791Z,69.90
2018-12-08T20:41:54.096Z,70.40
2018-12-08T20:44:22.279Z,70.60
2018-12-08T20:46:50.531Z,70.60
2018-12-08T20:49:18.705Z,71.00
2018-12-08T20:51:46.896Z,71.10
2018-12-08T20:54:15.055Z,71.10
2018-12-08T20:56:43.208Z,71.10
2018-12-08T20:59:11.364Z,71.60
2018-12-08T21:01:39.519Z,71.70
2018-12-08T21:04:07.813Z,72.10
2018-12-08T21:06:36.261Z,72.30
2018-12-08T21:09:05.676Z,72.00
2018-12-08T21:11:33.959Z,72.30
2018-12-08T21:14:02.140Z,73.10
2018-12-08T21:16:30.388Z,72.40
2018-12-08T21:18:58.543Z,72.60
2018-12-08T21:21:26.935Z,72.70
2018-12-08T21:23:55.112Z,72.60
2018-12-08T21:26:24.058Z,72.80
2018-12-08T21:28:52.528Z,73.50
2018-12-08T21:31:20.756Z,72.80
2018-12-08T21:33:49.972Z,72.40
2018-12-08T21:36:18.138Z,71.80
2018-12-08T21:38:46.402Z,71.20
2018-12-08T21:41:14.575Z,71.20
2018-12-08T21:43:42.754Z,70.80
2018-12-08T21:46:11.017Z,70.00
2018-12-08T21:48:39.227Z,70.20
2018-12-08T21:51:07.353Z,69.80
2018-12-08T21:53:35.565Z,68.90
2018-12-08T21:56:04.018Z,68.90
2018-12-08T21:58:32.467Z,69.00
2018-12-08T22:01:00.720Z,69.40
2018-12-08T22:03:28.875Z,68.90
2018-12-08T22:05:57.040Z,66.90
2018-12-08T22:08:25.315Z,64.20
2018-12-08T22:10:53.500Z,63.10
2018-12-08T22:13:21.663Z,62.00
2018-12-08T22:15:49.843Z,61.30
2018-12-08T22:18:18.067Z,61.10
2018-12-08T22:20:46.264Z,62.50
2018-12-08T22:23:14.715Z,63.90
2018-12-08T22:25:42.891Z,65.90
2018-12-08T22:28:11.087Z,67.20
2018-12-08T22:30:39.342Z,68.30
2018-12-08T22:33:07.538Z,69.20
2018-12-08T22:35:35.712Z,69.70
2018-12-08T22:38:03.991Z,69.90
2018-12-08T22:40:32.157Z,70.40
2018-12-08T22:43:00.295Z,71.50
2018-12-08T22:45:28.562Z,71.50
2018-12-08T22:47:56.743Z,71.50
2018-12-08T22:50:24.899Z,71.50
2018-12-08T22:52:53.105Z,71.20
2018-12-08T22:55:21.234Z,71.30
2018-12-08T22:57:49.379Z,71.60
2018-12-08T23:00:41.303Z,71.70
2018-12-08T23:03:10.023Z,71.60
2018-12-08T23:05:38.271Z,71.70
2018-12-08T23:08:06.583Z,70.90
2018-12-08T23:10:35.210Z,70.40
2018-12-08T23:13:03.551Z,62.60
2018-12-08T23:15:31.707Z,61.40
2018-12-08T23:17:59.903Z,54.00
2018-12-08T23:20:28.095Z,49.90
2018-12-08T23:22:56.234Z,47.40
2018-12-08T23:25:24.412Z,42.20
2018-12-08T23:27:52.603Z,40.70
2018-12-08T23:30:20.888Z,39.60
2018-12-08T23:32:49.059Z,38.00
2018-12-08T23:35:17.371Z,37.10
2018-12-08T23:37:45.728Z,35.90
2018-12-08T23:40:14.049Z,33.50
2018-12-08T23:42:42.817Z,34.40
2018-12-08T23:45:11.521Z,34.20
2018-12-08T23:47:39.684Z,34.50
2018-12-08T23:50:09.185Z,34.80
2018-12-08T23:52:37.607Z,33.50
2018-12-08T23:55:06.639Z,33.60
2018-12-08T23:57:34.783Z,32.80
